createdAt,value
2018-08-08T00:02:18.359Z,5.43
2018-08-08T00:04:46.777Z,5.90
2018-08-08T00:07:15.516Z,5.53
2018-08-08T00:09:44.134Z,5.53
2018-08-08T00:12:12.826Z,5.87
2018-08-08T00:14:41.427Z,5.60
2018-08-08T00:17:09.732Z,5.30
2018-08-08T00:19:40.128Z,5.85
2018-08-08T00:22:08.581Z,5.53
2018-08-08T00:24:37.061Z,5.70
2018-08-08T00:27:05.894Z,5.67
2018-08-08T00:29:34.240Z,5.28
2018-08-08T00:32:02.774Z,5.35
2018-08-08T00:34:31.174Z,5.37
2018-08-08T00:36:59.934Z,5.28
2018-08-08T00:39:28.296Z,5.62
2018-08-08T00:41:56.793Z,5.50
2018-08-08T00:44:25.091Z,5.60
2018-08-08T00:46:53.685Z,5.50
2018-08-08T00:49:21.957Z,5.87
2018-08-08T00:51:50.294Z,6.40
2018-08-08T00:54:18.898Z,6.17
2018-08-08T00:56:47.294Z,6.00
2018-08-08T00:59:15.783Z,6.40
2018-08-08T01:01:46.928Z,5.97
2018-08-08T01:04:15.469Z,6.67
2018-08-08T01:06:44.049Z,6.22
2018-08-08T01:09:13.493Z,6.05
2018-08-08T01:11:42.596Z,6.37
2018-08-08T01:14:11.202Z,6.50
2018-08-08T01:16:39.791Z,6.42
2018-08-08T01:19:08.318Z,6.40
2018-08-08T01:21:36.896Z,6.33
2018-08-08T01:24:05.521Z,6.73
2018-08-08T01:26:34.621Z,7.35
2018-08-08T01:29:09.473Z,6.42
2018-08-08T01:31:37.978Z,7.00
2018-08-08T01:34:06.590Z,7.22
2018-08-08T01:36:35.087Z,7.13
2018-08-08T01:39:03.682Z,7.90
2018-08-08T01:41:33.015Z,7.47
2018-08-08T01:44:01.499Z,7.30
2018-08-08T01:46:30.119Z,7.70
2018-08-08T01:48:58.579Z,7.30
2018-08-08T01:51:27.174Z,8.00
2018-08-08T01:53:55.704Z,7.40
2018-08-08T01:56:24.414Z,7.95
2018-08-08T01:58:52.916Z,8.60
2018-08-08T02:01:21.439Z,8.10
2018-08-08T02:03:49.941Z,8.30
2018-08-08T02:06:18.409Z,7.75
2018-08-08T02:08:46.623Z,8.10
2018-08-08T02:11:15.143Z,8.20
2018-08-08T02:13:44.568Z,7.87
2018-08-08T02:16:13.059Z,8.13
2018-08-08T02:18:41.444Z,8.65
2018-08-08T02:21:10.164Z,8.50
2018-08-08T02:23:38.544Z,8.10
2018-08-08T02:26:07.061Z,8.80
2018-08-08T02:28:35.375Z,9.10
2018-08-08T02:31:03.860Z,9.20
2018-08-08T02:33:32.288Z,9.27
2018-08-08T02:36:02.040Z,8.93
2018-08-08T02:38:30.709Z,9.98
2018-08-08T02:40:59.085Z,9.98
2018-08-08T02:43:27.509Z,9.65
2018-08-08T02:45:57.037Z,9.43
2018-08-08T02:48:25.553Z,9.35
2018-08-08T02:50:54.024Z,9.80
2018-08-08T02:53:22.553Z,9.03
2018-08-08T02:55:51.028Z,9.97
2018-08-08T02:58:19.440Z,10.10
2018-08-08T03:00:47.924Z,9.90
2018-08-08T03:03:16.335Z,10.35
2018-08-08T03:05:44.741Z,10.08
2018-08-08T03:08:13.124Z,9.50
2018-08-08T03:10:41.554Z,9.50
2018-08-08T03:13:10.038Z,10.30
2018-08-08T03:15:38.621Z,10.20
2018-08-08T03:18:08.172Z,9.95
2018-08-08T03:20:36.560Z,10.20
2018-08-08T03:23:04.945Z,10.80
2018-08-08T03:25:38.630Z,9.78
2018-08-08T03:28:07.089Z,10.00
2018-08-08T03:30:35.578Z,9.93
2018-08-08T03:33:04.213Z,10.27
2018-08-08T03:35:32.807Z,10.90
2018-08-08T03:38:01.178Z,10.40
2018-08-08T03:40:29.354Z,10.23
2018-08-08T03:42:57.796Z,10.82
2018-08-08T03:45:26.075Z,10.38
2018-08-08T03:47:54.579Z,10.40
2018-08-08T03:50:22.995Z,10.60
2018-08-08T03:52:51.585Z,11.55
2018-08-08T03:55:20.211Z,10.43
2018-08-08T03:57:48.624Z,10.35
2018-08-08T04:00:21.233Z,11.33
2018-08-08T04:02:50.048Z,10.70
2018-08-08T04:05:19.715Z,10.93
2018-08-08T04:07:48.068Z,11.70
2018-08-08T04:10:17.288Z,11.33
2018-08-08T04:12:45.734Z,12.00
2018-08-08T04:15:16.660Z,11.88
2018-08-08T04:17:45.082Z,11.80
2018-08-08T04:20:13.733Z,11.18
2018-08-08T04:22:42.201Z,11.30
2018-08-08T04:25:12.040Z,11.68
2018-08-08T04:27:40.859Z,10.70
2018-08-08T04:30:11.345Z,10.60
2018-08-08T04:32:40.345Z,10.50
2018-08-08T04:35:09.112Z,11.80
2018-08-08T04:37:37.865Z,10.90
2018-08-08T04:40:07.977Z,11.70
2018-08-08T04:42:36.134Z,10.90
2018-08-08T04:45:05.056Z,10.60
2018-08-08T04:47:33.374Z,12.23
2018-08-08T04:50:02.506Z,10.80
2018-08-08T04:52:30.762Z,11.03
2018-08-08T04:55:00.114Z,10.63
2018-08-08T04:57:28.590Z,10.50
2018-08-08T04:59:57.009Z,10.90
2018-08-08T05:02:25.467Z,10.00
2018-08-08T05:04:54.118Z,10.55
2018-08-08T05:07:22.606Z,10.53
2018-08-08T05:09:51.655Z,9.78
2018-08-08T05:12:21.018Z,10.35
2018-08-08T05:14:51.814Z,10.00
2018-08-08T05:17:20.738Z,9.88
2018-08-08T05:19:49.954Z,10.40
2018-08-08T05:22:20.685Z,10.00
2018-08-08T05:24:49.775Z,10.32
2018-08-08T05:27:19.020Z,10.53
2018-08-08T05:29:48.653Z,11.12
2018-08-08T05:32:17.836Z,10.85
2018-08-08T05:34:46.849Z,9.93
2018-08-08T05:37:15.438Z,10.50
2018-08-08T05:39:44.135Z,10.20
2018-08-08T05:42:13.749Z,10.67
2018-08-08T05:44:43.134Z,9.60
2018-08-08T05:47:12.228Z,10.60
2018-08-08T05:49:41.024Z,10.40
2018-08-08T05:52:10.592Z,10.05
2018-08-08T05:54:41.857Z,10.00
2018-08-08T05:57:10.945Z,10.00
2018-08-08T05:59:40.149Z,10.35
2018-08-08T06:02:08.820Z,9.88
2018-08-08T06:04:37.925Z,10.32
2018-08-08T06:07:07.496Z,10.13
2018-08-08T06:09:36.616Z,10.20
2018-08-08T06:12:05.340Z,10.20
2018-08-08T06:14:34.314Z,11.10
2018-08-08T06:17:03.325Z,10.55
2018-08-08T06:19:32.771Z,10.08
2018-08-08T06:22:02.173Z,11.00
2018-08-08T06:24:31.647Z,10.70
2018-08-08T06:27:00.449Z,10.88
2018-08-08T06:29:29.260Z,11.35
2018-08-08T06:32:02.934Z,10.80
2018-08-08T06:34:32.640Z,11.33
2018-08-08T06:37:01.659Z,11.80
2018-08-08T06:39:31.450Z,11.23
2018-08-08T06:42:01.316Z,11.30
2018-08-08T06:44:30.420Z,11.90
2018-08-08T06:46:59.545Z,12.73
2018-08-08T06:49:28.210Z,11.33
2018-08-08T06:51:57.498Z,10.80
2018-08-08T06:54:26.286Z,10.53
2018-08-08T06:56:55.384Z,10.45
2018-08-08T06:59:25.478Z,9.80
2018-08-08T07:01:54.738Z,8.60
2018-08-08T07:04:24.199Z,8.05
2018-08-08T07:06:53.073Z,7.80
2018-08-08T07:09:22.788Z,8.10
2018-08-08T07:11:54.039Z,8.15
2018-08-08T07:14:22.673Z,7.60
2018-08-08T07:16:52.860Z,7.60
2018-08-08T07:19:21.897Z,7.60
2018-08-08T07:21:50.912Z,7.10
2018-08-08T07:24:19.711Z,7.10
2018-08-08T07:26:48.913Z,7.60
2018-08-08T07:29:18.691Z,7.22
2018-08-08T07:31:47.698Z,7.10
2018-08-08T07:34:16.907Z,7.13
2018-08-08T07:36:46.142Z,6.60
2018-08-08T07:39:16.386Z,7.08
2018-08-08T07:41:45.406Z,6.70
2018-08-08T07:44:14.250Z,6.57
2018-08-08T07:46:43.639Z,6.58
2018-08-08T07:49:12.499Z,6.92
2018-08-08T07:51:41.361Z,6.90
2018-08-08T07:54:10.374Z,6.55
2018-08-08T07:56:39.712Z,7.17
2018-08-08T07:59:09.238Z,7.10
2018-08-08T08:01:38.859Z,7.35
2018-08-08T08:04:08.041Z,7.47
2018-08-08T08:06:37.660Z,6.90
2018-08-08T08:09:09.043Z,7.17
2018-08-08T08:11:38.014Z,7.23
2018-08-08T08:14:06.513Z,7.80
2018-08-08T08:16:35.626Z,7.12
2018-08-08T08:19:04.841Z,8.30
2018-08-08T08:21:34.305Z,7.87
2018-08-08T08:24:03.101Z,7.20
2018-08-08T08:26:32.295Z,7.55
2018-08-08T08:29:01.625Z,7.15
2018-08-08T08:31:30.887Z,7.40
2018-08-08T08:34:01.016Z,7.37
2018-08-08T08:36:29.791Z,7.22
2018-08-08T08:38:58.675Z,7.78
2018-08-08T08:41:27.448Z,7.65
2018-08-08T08:43:56.811Z,7.33
2018-08-08T08:46:25.631Z,7.10
2018-08-08T08:48:55.227Z,7.78
2018-08-08T08:51:25.368Z,7.77
2018-08-08T08:53:54.054Z,7.87
2018-08-08T08:56:23.734Z,8.45
2018-08-08T08:58:52.709Z,8.13
2018-08-08T09:01:21.619Z,7.55
2018-08-08T09:03:50.866Z,7.25
2018-08-08T09:06:22.311Z,7.10
2018-08-08T09:08:51.823Z,7.33
2018-08-08T09:11:21.640Z,7.70
2018-08-08T09:13:50.843Z,7.00
2018-08-08T09:16:20.290Z,6.05
2018-08-08T09:18:49.386Z,5.10
2018-08-08T09:21:20.064Z,5.43
2018-08-08T09:23:49.013Z,5.70
2018-08-08T09:26:19.018Z,5.33
2018-08-08T09:28:48.492Z,5.37
2018-08-08T09:31:17.612Z,5.10
2018-08-08T09:33:46.627Z,5.17
2018-08-08T09:36:16.671Z,5.00
2018-08-08T09:38:45.262Z,5.30
2018-08-08T09:41:14.440Z,5.20
2018-08-08T09:43:43.829Z,5.00
2018-08-08T09:46:12.619Z,5.30
2018-08-08T09:48:41.318Z,5.00
2018-08-08T09:51:10.569Z,5.08
2018-08-08T09:53:38.707Z,5.00
2018-08-08T09:56:07.893Z,5.35
2018-08-08T09:58:36.540Z,4.90
2018-08-08T10:01:11.056Z,5.40
2018-08-08T10:03:40.819Z,5.25
2018-08-08T10:06:10.561Z,5.60
2018-08-08T10:08:39.559Z,5.30
2018-08-08T10:11:08.859Z,5.30
2018-08-08T10:13:37.937Z,5.20
2018-08-08T10:16:07.625Z,5.40
2018-08-08T10:18:37.063Z,5.42
2018-08-08T10:21:05.978Z,5.42
2018-08-08T10:23:34.882Z,6.10
2018-08-08T10:26:07.800Z,5.50
2018-08-08T10:28:37.848Z,5.80
2018-08-08T10:31:07.438Z,5.30
2018-08-08T10:33:36.947Z,4.95
2018-08-08T10:36:06.585Z,5.70
2018-08-08T10:38:36.441Z,4.90
2018-08-08T10:41:05.109Z,5.20
2018-08-08T10:43:33.951Z,5.47
2018-08-08T10:46:02.554Z,5.40
2018-08-08T10:48:32.948Z,5.70
2018-08-08T10:51:01.663Z,5.50
2018-08-08T10:53:31.108Z,5.80
2018-08-08T10:56:00.130Z,5.70
2018-08-08T10:58:29.400Z,5.40
2018-08-08T11:00:58.061Z,5.77
2018-08-08T11:03:28.147Z,5.35
2018-08-08T11:05:59.007Z,5.62
2018-08-08T11:08:27.771Z,4.80
2018-08-08T11:10:56.338Z,5.60
2018-08-08T11:13:25.138Z,4.75
2018-08-08T11:15:53.860Z,5.50
2018-08-08T11:18:23.141Z,5.50
2018-08-08T11:20:52.099Z,5.78
2018-08-08T11:23:20.911Z,5.78
2018-08-08T11:25:49.901Z,5.90
2018-08-08T11:28:19.345Z,6.10
2018-08-08T11:30:49.164Z,5.40
2018-08-08T11:33:18.498Z,5.50
2018-08-08T11:35:48.233Z,5.50
2018-08-08T11:38:20.846Z,6.30
2018-08-08T11:40:49.937Z,6.45
2018-08-08T11:43:19.521Z,6.30
2018-08-08T11:45:49.238Z,6.80
2018-08-08T11:48:19.003Z,6.62
2018-08-08T11:50:48.411Z,6.70
2018-08-08T11:53:17.714Z,6.75
2018-08-08T11:55:46.889Z,6.00
2018-08-08T11:58:15.804Z,5.70
2018-08-08T12:00:45.996Z,5.30
2018-08-08T12:03:15.499Z,5.03
2018-08-08T12:05:45.215Z,4.80
2018-08-08T12:08:13.803Z,5.30
2018-08-08T12:10:42.799Z,5.50
2018-08-08T12:13:11.743Z,5.50
2018-08-08T12:15:40.546Z,5.10
2018-08-08T12:18:09.193Z,6.05
2018-08-08T12:20:37.931Z,6.05
2018-08-08T12:23:07.674Z,5.97
2018-08-08T12:25:36.303Z,5.80
2018-08-08T12:28:04.867Z,5.80
2018-08-08T12:30:33.046Z,5.90
2018-08-08T12:33:02.792Z,5.80
2018-08-08T12:35:31.431Z,5.50
2018-08-08T12:37:59.801Z,5.30
2018-08-08T12:40:28.436Z,6.47
2018-08-08T12:42:57.056Z,5.47
2018-08-08T12:45:25.508Z,5.97
2018-08-08T12:47:54.941Z,5.40
2018-08-08T12:50:23.389Z,6.15
2018-08-08T12:52:51.911Z,5.42
2018-08-08T12:55:20.348Z,6.10
2018-08-08T12:57:48.829Z,6.50
2018-08-08T13:00:17.217Z,7.10
2018-08-08T13:02:45.528Z,7.12
2018-08-08T13:05:13.934Z,6.58
2018-08-08T13:07:42.637Z,6.40
2018-08-08T13:10:11.124Z,6.10
2018-08-08T13:12:39.611Z,4.80
2018-08-08T13:15:08.903Z,5.58
2018-08-08T13:17:37.332Z,5.60
2018-08-08T13:20:06.567Z,5.50
2018-08-08T13:22:34.682Z,5.72
2018-08-08T13:25:03.354Z,5.92
2018-08-08T13:27:32.731Z,6.00
2018-08-08T13:30:02.070Z,5.90
2018-08-08T13:32:31.026Z,5.80
2018-08-08T13:34:59.983Z,6.50
2018-08-08T13:37:28.431Z,7.50
2018-08-08T13:39:57.453Z,7.90
2018-08-08T13:42:25.770Z,7.60
2018-08-08T13:44:54.706Z,7.03
2018-08-08T13:47:23.058Z,7.08
2018-08-08T13:49:51.411Z,7.00
2018-08-08T13:52:19.947Z,6.80
2018-08-08T13:54:48.415Z,7.30
2018-08-08T13:57:16.963Z,7.07
2018-08-08T13:59:45.593Z,6.95
2018-08-08T14:02:13.887Z,7.28
2018-08-08T14:04:42.788Z,7.85
2018-08-08T14:07:11.194Z,7.70
2018-08-08T14:09:39.850Z,8.00
2018-08-08T14:12:08.604Z,8.68
2018-08-08T14:14:37.677Z,7.50
2018-08-08T14:17:06.321Z,6.90
2018-08-08T14:19:34.601Z,7.65
2018-08-08T14:22:04.016Z,7.25
2018-08-08T14:24:32.308Z,8.38
2018-08-08T14:27:00.722Z,8.38
2018-08-08T14:29:29.675Z,8.28
2018-08-08T14:31:57.947Z,8.78
2018-08-08T14:34:26.553Z,9.20
2018-08-08T14:36:54.832Z,8.98
2018-08-08T14:39:23.243Z,8.68
2018-08-08T14:41:51.634Z,8.83
2018-08-08T14:44:20.034Z,8.50
2018-08-08T14:46:50.376Z,8.28
2018-08-08T14:49:18.981Z,8.60
2018-08-08T14:51:47.461Z,8.00
2018-08-08T14:54:15.633Z,8.33
2018-08-08T14:56:43.747Z,8.35
2018-08-08T14:59:12.368Z,8.10
2018-08-08T15:01:40.773Z,8.28
2018-08-08T15:04:09.320Z,17.57
2018-08-08T15:06:37.698Z,9.88
2018-08-08T15:09:09.527Z,8.83
2018-08-08T15:11:38.070Z,7.60
2018-08-08T15:14:06.359Z,8.83
2018-08-08T15:16:34.649Z,8.58
2018-08-08T15:19:03.470Z,8.30
2018-08-08T15:21:31.884Z,8.40
2018-08-08T15:24:00.183Z,8.27
2018-08-08T15:26:28.575Z,8.20
2018-08-08T15:28:56.950Z,8.68
2018-08-08T15:31:25.559Z,9.08
2018-08-08T15:33:54.437Z,8.65
2018-08-08T15:36:22.905Z,8.65
2018-08-08T15:38:51.268Z,9.20
2018-08-08T15:41:19.782Z,8.30
2018-08-08T15:43:48.089Z,9.78
2018-08-08T15:46:16.554Z,8.98
2018-08-08T15:48:45.202Z,9.20
2018-08-08T15:51:13.714Z,9.50
2018-08-08T15:53:42.112Z,9.00
2018-08-08T15:56:10.462Z,9.60
2018-08-08T15:58:38.903Z,10.03
2018-08-08T16:01:07.603Z,9.20
2018-08-08T16:03:36.003Z,9.65
2018-08-08T16:06:04.377Z,9.50
2018-08-08T16:08:32.819Z,9.60
2018-08-08T16:11:01.282Z,9.25
2018-08-08T16:13:29.654Z,9.63
2018-08-08T16:15:58.303Z,9.18
2018-08-08T16:18:26.702Z,9.28
2018-08-08T16:20:55.069Z,8.97
2018-08-08T16:23:23.810Z,9.30
2018-08-08T16:25:54.343Z,10.38
2018-08-08T16:28:22.754Z,8.48
2018-08-08T16:30:51.017Z,8.58
2018-08-08T16:33:19.353Z,9.35
2018-08-08T16:35:47.656Z,9.20
2018-08-08T16:38:16.127Z,8.75
2018-08-08T16:40:44.936Z,8.30
2018-08-08T16:43:14.892Z,8.65
2018-08-08T16:45:43.493Z,8.30
2018-08-08T16:48:12.015Z,8.10
2018-08-08T16:50:41.416Z,8.63
2018-08-08T16:53:09.811Z,8.65
2018-08-08T16:55:38.370Z,8.80
2018-08-08T16:58:06.726Z,8.40
2018-08-08T17:00:35.232Z,9.18
2018-08-08T17:03:03.717Z,8.65
2018-08-08T17:05:32.424Z,9.05
2018-08-08T17:08:00.903Z,8.30
2018-08-08T17:10:29.449Z,8.80
2018-08-08T17:12:59.056Z,8.58
2018-08-08T17:15:27.552Z,8.80
2018-08-08T17:17:56.089Z,8.97
2018-08-08T17:20:24.426Z,9.08
2018-08-08T17:22:52.965Z,8.80
2018-08-08T17:25:21.575Z,8.63
2018-08-08T17:27:49.992Z,9.15
2018-08-08T17:30:20.909Z,9.20
2018-08-08T17:32:49.226Z,9.00
2018-08-08T17:35:18.166Z,8.90
2018-08-08T17:37:46.627Z,8.60
2018-08-08T17:40:15.226Z,8.55
2018-08-08T17:42:43.696Z,8.70
2018-08-08T17:45:12.161Z,8.80
2018-08-08T17:47:44.256Z,8.18
2018-08-08T17:50:12.827Z,8.58
2018-08-08T17:52:41.348Z,8.57
2018-08-08T17:55:11.207Z,8.75
2018-08-08T17:57:40.189Z,8.70
2018-08-08T18:00:09.502Z,8.88
2018-08-08T18:02:42.285Z,8.93
2018-08-08T18:05:10.936Z,9.50
2018-08-08T18:07:39.511Z,10.00
2018-08-08T18:10:08.777Z,12.00
2018-08-08T18:12:38.859Z,9.00
2018-08-08T18:15:08.444Z,9.40
2018-08-08T18:17:37.041Z,9.03
2018-08-08T18:21:09.215Z,9.70
2018-08-08T18:23:38.015Z,9.48
2018-08-08T18:26:06.490Z,9.10
2018-08-08T18:28:35.357Z,9.47
2018-08-08T18:31:04.838Z,9.90
2018-08-08T18:33:33.805Z,10.88
2018-08-08T18:36:02.884Z,10.20
2018-08-08T18:38:36.961Z,9.73
2018-08-08T18:41:07.280Z,9.65
2018-08-08T18:43:36.439Z,9.70
2018-08-08T18:46:05.048Z,10.10
2018-08-08T18:48:34.581Z,9.80
2018-08-08T18:51:03.089Z,10.30
2018-08-08T18:53:31.601Z,10.20
2018-08-08T18:56:00.070Z,9.88
2018-08-08T18:58:29.512Z,10.10
2018-08-08T19:00:57.916Z,11.05
2018-08-08T19:03:26.398Z,9.60
2018-08-08T19:05:54.604Z,11.10
2018-08-08T19:08:26.692Z,10.63
2018-08-08T19:10:54.998Z,10.00
2018-08-08T19:13:23.377Z,9.73
2018-08-08T19:15:58.452Z,10.25
2018-08-08T19:18:26.839Z,10.70
2018-08-08T19:20:55.556Z,9.70
2018-08-08T19:23:23.932Z,9.90
2018-08-08T19:25:59.312Z,9.80
2018-08-08T19:28:28.432Z,10.40
2018-08-08T19:30:57.135Z,10.13
2018-08-08T19:33:26.109Z,10.30
2018-08-08T19:35:54.446Z,10.15
2018-08-08T19:38:22.951Z,11.15
2018-08-08T19:40:51.525Z,10.45
2018-08-08T19:43:21.070Z,9.70
2018-08-08T19:45:49.463Z,10.70
2018-08-08T19:48:17.978Z,10.40
2018-08-08T19:50:51.387Z,9.30
2018-08-08T19:53:20.457Z,9.83
2018-08-08T19:55:49.013Z,9.55
2018-08-08T19:58:17.493Z,9.93
2018-08-08T20:00:47.181Z,8.95
2018-08-08T20:03:15.844Z,9.80
2018-08-08T20:05:45.872Z,9.20
2018-08-08T20:08:32.802Z,9.08
2018-08-08T20:11:01.276Z,9.50
2018-08-08T20:13:30.318Z,8.93
2018-08-08T20:15:59.763Z,10.15
2018-08-08T20:18:31.599Z,9.68
2018-08-08T20:21:02.177Z,10.30
2018-08-08T20:23:33.068Z,10.10
2018-08-08T20:26:02.472Z,10.45
2018-08-08T20:28:31.054Z,9.90
2018-08-08T20:30:59.844Z,9.60
2018-08-08T20:33:28.330Z,10.53
2018-08-08T20:35:57.592Z,10.60
2018-08-08T20:38:26.373Z,10.10
2018-08-08T20:40:55.382Z,10.60
2018-08-08T20:43:23.987Z,9.98
2018-08-08T20:45:52.589Z,10.28
2018-08-08T20:48:20.910Z,10.20
2018-08-08T20:50:49.493Z,9.63
2018-08-08T20:53:17.878Z,10.10
2018-08-08T20:55:50.234Z,10.90
2018-08-08T20:58:19.312Z,10.60
2018-08-08T21:00:47.890Z,10.20
2018-08-08T21:03:17.218Z,10.60
2018-08-08T21:05:50.487Z,10.58
2018-08-08T21:08:18.919Z,11.18
2018-08-08T21:10:47.440Z,10.20
2018-08-08T21:13:17.730Z,10.48
2018-08-08T21:15:46.076Z,10.90
2018-08-08T21:18:14.482Z,10.45
2018-08-08T21:20:43.396Z,10.38
2018-08-08T21:23:12.548Z,10.80
2018-08-08T21:25:41.292Z,11.08
2018-08-08T21:28:09.821Z,10.50
2018-08-08T21:30:38.450Z,11.00
2018-08-08T21:33:14.995Z,10.78
2018-08-08T21:35:43.308Z,11.05
2018-08-08T21:38:11.903Z,10.50
2018-08-08T21:40:40.270Z,11.10
2018-08-08T21:43:09.704Z,10.93
2018-08-08T21:45:38.005Z,10.87
2018-08-08T21:48:06.728Z,11.15
2018-08-08T21:50:35.119Z,11.03
2018-08-08T21:53:13.653Z,11.00
2018-08-08T21:55:53.088Z,11.40
2018-08-08T21:58:32.538Z,10.53
2018-08-08T22:01:13.688Z,11.25
2018-08-08T22:03:53.871Z,10.58
2018-08-08T22:06:34.938Z,10.05
2018-08-08T22:09:14.337Z,10.00
2018-08-08T22:12:55.625Z,10.08
2018-08-08T22:15:36.058Z,10.30
2018-08-08T22:19:18.546Z,9.90
2018-08-08T22:21:47.570Z,9.40
2018-08-08T22:24:16.243Z,9.10
2018-08-08T22:26:44.652Z,9.20
2018-08-08T22:29:13.095Z,10.05
2018-08-08T22:31:41.666Z,9.10
2018-08-08T22:34:09.826Z,9.73
2018-08-08T22:36:37.926Z,9.70
2018-08-08T22:39:09.940Z,9.33
2018-08-08T22:41:38.432Z,9.05
2018-08-08T22:44:07.139Z,9.03
2018-08-08T22:46:35.756Z,8.90
2018-08-08T22:49:35.113Z,8.90
2018-08-08T22:52:03.728Z,9.30
2018-08-08T22:54:32.345Z,9.63
2018-08-08T22:57:00.712Z,9.45
2018-08-08T22:59:29.151Z,8.98
2018-08-08T23:01:57.758Z,9.30
2018-08-08T23:04:26.358Z,8.75
2018-08-08T23:06:54.840Z,8.55
2018-08-08T23:09:23.359Z,8.90
2018-08-08T23:11:51.741Z,9.05
2018-08-08T23:14:20.253Z,8.55
2018-08-08T23:16:48.835Z,9.35
2018-08-08T23:19:17.230Z,9.40
2018-08-08T23:21:45.420Z,8.80
2018-08-08T23:24:13.554Z,8.70
2018-08-08T23:26:41.949Z,8.83
2018-08-08T23:29:10.455Z,9.03
2018-08-08T23:31:39.861Z,9.10
2018-08-08T23:34:08.377Z,9.03
2018-08-08T23:36:36.783Z,8.95
2018-08-08T23:39:07.379Z,9.80
2018-08-08T23:41:37.152Z,9.33
2018-08-08T23:44:06.094Z,10.00
2018-08-08T23:46:34.434Z,9.80
2018-08-08T23:49:02.739Z,9.30
2018-08-08T23:51:30.913Z,9.55
2018-08-08T23:53:59.052Z,9.80
2018-08-08T23:56:27.544Z,9.90
2018-08-08T23:58:56.057Z,9.48
